sensor_id;sensor_type;location;lat;lon;timestamp;P1;durP1;ratioP1;P2;durP2;ratioP2
78416;SDS011;67715;46.170;6.140;2024-03-23T00:55:22;3.35;;;1.67;;
78416;SDS011;67715;46.170;6.140;2024-03-23T00:57:48;4.93;;;1.73;;
78416;SDS011;67715;46.170;6.140;2024-03-23T01:00:13;3.43;;;1.47;;
78416;SDS011;67715;46.170;6.140;2024-03-23T01:02:39;2.92;;;2.47;;
78416;SDS011;67715;46.170;6.140;2024-03-23T01:05:04;1.83;;;1.43;;
78416;SDS011;67715;46.170;6.140;2024-03-23T01:07:30;2.53;;;1.40;;
78416;SDS011;67715;46.170;6.140;2024-03-23T01:09:55;2.00;;;1.50;;
78416;SDS011;67715;46.170;6.140;2024-03-23T01:12:20;3.17;;;1.30;;
78416;SDS011;67715;46.170;6.140;2024-03-23T01:14:46;4.03;;;1.60;;
78416;SDS011;67715;46.170;6.140;2024-03-23T01:17:11;3.13;;;1.60;;
78416;SDS011;67715;46.170;6.140;2024-03-23T01:19:37;2.17;;;1.53;;
78416;SDS011;67715;46.170;6.140;2024-03-23T01:22:04;2.65;;;1.48;;
78416;SDS011;67715;46.170;6.140;2024-03-23T01:24:30;2.72;;;1.70;;
78416;SDS011;67715;46.170;6.140;2024-03-23T01:26:55;2.47;;;1.50;;
78416;SDS011;67715;46.170;6.140;2024-03-23T01:29:20;1.93;;;1.43;;
78416;SDS011;67715;46.170;6.140;2024-03-23T01:31:45;3.30;;;1.73;;
78416;SDS011;67715;46.170;6.140;2024-03-23T01:34:11;3.40;;;1.60;;
78416;SDS011;67715;46.170;6.140;2024-03-23T01:36:36;3.10;;;1.20;;
78416;SDS011;67715;46.170;6.140;2024-03-23T01:39:01;3.38;;;1.40;;
78416;SDS011;67715;46.170;6.140;2024-03-23T01:41:27;4.10;;;1.50;;
78416;SDS011;67715;46.170;6.140;2024-03-23T01:43:53;1.83;;;1.23;;
78416;SDS011;67715;46.170;6.140;2024-03-23T01:46:20;3.22;;;1.30;;
78416;SDS011;67715;46.170;6.140;2024-03-23T01:48:45;4.65;;;1.50;;
78416;SDS011;67715;46.170;6.140;2024-03-23T01:51:11;3.67;;;1.58;;
78416;SDS011;67715;46.170;6.140;2024-03-23T01:53:36;2.45;;;1.65;;
78416;SDS011;67715;46.170;6.140;2024-03-23T01:56:01;5.00;;;1.80;;
78416;SDS011;67715;46.170;6.140;2024-03-23T01:58:27;3.60;;;1.30;;
78416;SDS011;67715;46.170;6.140;2024-03-23T02:00:52;3.47;;;1.40;;
78416;SDS011;67715;46.170;6.140;2024-03-23T02:03:27;2.23;;;1.40;;
78416;SDS011;67715;46.170;6.140;2024-03-23T02:05:53;2.28;;;1.60;;
78416;SDS011;67715;46.170;6.140;2024-03-23T02:08:22;2.17;;;1.50;;
78416;SDS011;67715;46.170;6.140;2024-03-23T02:10:48;4.80;;;1.45;;
78416;SDS011;67715;46.170;6.140;2024-03-23T02:13:15;5.15;;;1.33;;
78416;SDS011;67715;46.170;6.140;2024-03-23T02:15:41;2.35;;;1.38;;
78416;SDS011;67715;46.170;6.140;2024-03-23T02:18:09;4.25;;;1.35;;
78416;SDS011;67715;46.170;6.140;2024-03-23T02:20:35;2.80;;;1.33;;
78416;SDS011;67715;46.170;6.140;2024-03-23T02:23:01;4.72;;;1.63;;
78416;SDS011;67715;46.170;6.140;2024-03-23T02:25:26;2.88;;;1.58;;
78416;SDS011;67715;46.170;6.140;2024-03-23T02:27:51;6.30;;;2.10;;
78416;SDS011;67715;46.170;6.140;2024-03-23T02:30:19;3.80;;;2.15;;
78416;SDS011;67715;46.170;6.140;2024-03-23T02:32:44;5.72;;;1.77;;
78416;SDS011;67715;46.170;6.140;2024-03-23T02:35:09;3.33;;;1.70;;
78416;SDS011;67715;46.170;6.140;2024-03-23T02:37:35;3.87;;;1.43;;
78416;SDS011;67715;46.170;6.140;2024-03-23T02:40:00;3.40;;;1.40;;
78416;SDS011;67715;46.170;6.140;2024-03-23T02:42:25;3.47;;;2.00;;
78416;SDS011;67715;46.170;6.140;2024-03-23T02:44:51;7.07;;;2.10;;
78416;SDS011;67715;46.170;6.140;2024-03-23T02:47:16;3.05;;;1.60;;
78416;SDS011;67715;46.170;6.140;2024-03-23T02:49:41;3.20;;;1.50;;
78416;SDS011;67715;46.170;6.140;2024-03-23T02:52:07;5.00;;;1.77;;
78416;SDS011;67715;46.170;6.140;2024-03-23T02:54:32;4.27;;;1.50;;
78416;SDS011;67715;46.170;6.140;2024-03-23T02:56:57;3.57;;;1.90;;
78416;SDS011;67715;46.170;6.140;2024-03-23T02:59:23;2.93;;;1.50;;
78416;SDS011;67715;46.170;6.140;2024-03-23T03:01:48;3.17;;;1.90;;
78416;SDS011;67715;46.170;6.140;2024-03-23T03:04:13;2.73;;;1.53;;
78416;SDS011;67715;46.170;6.140;2024-03-23T03:06:38;3.00;;;1.70;;
78416;SDS011;67715;46.170;6.140;2024-03-23T03:09:04;4.13;;;2.00;;
78416;SDS011;67715;46.170;6.140;2024-03-23T03:11:29;4.40;;;1.92;;
78416;SDS011;67715;46.170;6.140;2024-03-23T03:13:55;3.10;;;1.45;;
78416;SDS011;67715;46.170;6.140;2024-03-23T03:16:20;2.63;;;1.90;;
78416;SDS011;67715;46.170;6.140;2024-03-23T03:18:45;4.97;;;1.83;;
78416;SDS011;67715;46.170;6.140;2024-03-23T03:21:11;4.80;;;1.75;;
78416;SDS011;67715;46.170;6.140;2024-03-23T03:23:37;3.33;;;1.52;;
78416;SDS011;67715;46.170;6.140;2024-03-23T03:26:03;2.97;;;1.60;;
78416;SDS011;67715;46.170;6.140;2024-03-23T03:28:29;2.05;;;1.38;;
78416;SDS011;67715;46.170;6.140;2024-03-23T03:30:56;3.53;;;1.75;;
78416;SDS011;67715;46.170;6.140;2024-03-23T03:33:22;3.33;;;1.83;;
78416;SDS011;67715;46.170;6.140;2024-03-23T03:35:47;4.72;;;1.50;;
78416;SDS011;67715;46.170;6.140;2024-03-23T03:38:12;2.20;;;1.33;;
78416;SDS011;67715;46.170;6.140;2024-03-23T03:40:38;3.63;;;1.83;;
78416;SDS011;67715;46.170;6.140;2024-03-23T03:43:03;2.00;;;1.30;;
78416;SDS011;67715;46.170;6.140;2024-03-23T03:45:28;3.13;;;1.52;;
78416;SDS011;67715;46.170;6.140;2024-03-23T03:47:54;2.23;;;1.33;;
78416;SDS011;67715;46.170;6.140;2024-03-23T03:50:19;5.33;;;1.80;;
78416;SDS011;67715;46.170;6.140;2024-03-23T03:52:46;5.63;;;1.70;;
78416;SDS011;67715;46.170;6.140;2024-03-23T03:55:12;2.93;;;1.73;;
78416;SDS011;67715;46.170;6.140;2024-03-23T03:57:39;3.13;;;1.65;;
78416;SDS011;67715;46.170;6.140;2024-03-23T04:00:06;3.88;;;1.88;;
78416;SDS011;67715;46.170;6.140;2024-03-23T04:02:32;3.28;;;1.65;;
78416;SDS011;67715;46.170;6.140;2024-03-23T04:04:57;3.20;;;1.40;;
78416;SDS011;67715;46.170;6.140;2024-03-23T04:07:22;3.25;;;1.45;;
78416;SDS011;67715;46.170;6.140;2024-03-23T04:09:48;5.23;;;1.63;;
78416;SDS011;67715;46.170;6.140;2024-03-23T04:12:14;1.88;;;1.48;;
78416;SDS011;67715;46.170;6.140;2024-03-23T04:14:40;3.17;;;1.52;;
78416;SDS011;67715;46.170;6.140;2024-03-23T04:17:05;3.97;;;1.53;;
78416;SDS011;67715;46.170;6.140;2024-03-23T04:19:30;3.13;;;1.70;;
78416;SDS011;67715;46.170;6.140;2024-03-23T04:21:55;4.30;;;2.03;;
78416;SDS011;67715;46.170;6.140;2024-03-23T04:24:21;3.03;;;1.87;;
78416;SDS011;67715;46.170;6.140;2024-03-23T04:26:47;4.38;;;1.73;;
78416;SDS011;67715;46.170;6.140;2024-03-23T04:29:13;3.55;;;1.98;;
78416;SDS011;67715;46.170;6.140;2024-03-23T04:31:38;2.47;;;1.87;;
78416;SDS011;67715;46.170;6.140;2024-03-23T04:34:03;2.23;;;1.50;;
78416;SDS011;67715;46.170;6.140;2024-03-23T04:36:29;5.32;;;1.80;;
78416;SDS011;67715;46.170;6.140;2024-03-23T04:38:55;3.60;;;2.05;;
78416;SDS011;67715;46.170;6.140;2024-03-23T04:41:21;4.32;;;1.90;;
78416;SDS011;67715;46.170;6.140;2024-03-23T04:43:46;6.20;;;2.10;;
78416;SDS011;67715;46.170;6.140;2024-03-23T04:46:12;4.00;;;2.23;;
78416;SDS011;67715;46.170;6.140;2024-03-23T04:48:37;4.30;;;2.40;;
78416;SDS011;67715;46.170;6.140;2024-03-23T04:51:03;4.63;;;2.40;;
78416;SDS011;67715;46.170;6.140;2024-03-23T04:53:28;6.05;;;2.65;;
78416;SDS011;67715;46.170;6.140;2024-03-23T04:55:58;4.07;;;2.30;;
78416;SDS011;67715;46.170;6.140;2024-03-23T04:58:24;5.63;;;2.10;;
78416;SDS011;67715;46.170;6.140;2024-03-23T05:00:53;3.25;;;1.90;;
78416;SDS011;67715;46.170;6.140;2024-03-23T05:03:22;4.47;;;2.55;;
78416;SDS011;67715;46.170;6.140;2024-03-23T05:05:47;4.32;;;2.13;;
78416;SDS011;67715;46.170;6.140;2024-03-23T05:08:13;4.53;;;2.63;;
78416;SDS011;67715;46.170;6.140;2024-03-23T05:10:40;3.47;;;2.53;;
78416;SDS011;67715;46.170;6.140;2024-03-23T05:13:06;2.70;;;2.28;;
78416;SDS011;67715;46.170;6.140;2024-03-23T05:15:31;5.30;;;2.22;;
78416;SDS011;67715;46.170;6.140;2024-03-23T05:17:57;4.60;;;2.37;;
78416;SDS011;67715;46.170;6.140;2024-03-23T05:20:22;3.03;;;2.13;;
78416;SDS011;67715;46.170;6.140;2024-03-23T05:22:47;4.47;;;3.08;;
78416;SDS011;67715;46.170;6.140;2024-03-23T05:25:13;5.13;;;3.10;;
78416;SDS011;67715;46.170;6.140;2024-03-23T05:27:38;5.78;;;3.70;;
78416;SDS011;67715;46.170;6.140;2024-03-23T05:30:03;4.93;;;3.43;;
78416;SDS011;67715;46.170;6.140;2024-03-23T05:32:30;6.30;;;3.85;;
78416;SDS011;67715;46.170;6.140;2024-03-23T05:34:56;5.23;;;3.90;;
78416;SDS011;67715;46.170;6.140;2024-03-23T05:37:22;6.30;;;4.63;;
78416;SDS011;67715;46.170;6.140;2024-03-23T05:39:47;8.60;;;4.53;;
78416;SDS011;67715;46.170;6.140;2024-03-23T05:42:15;7.30;;;4.22;;
78416;SDS011;67715;46.170;6.140;2024-03-23T05:44:46;7.05;;;4.15;;
78416;SDS011;67715;46.170;6.140;2024-03-23T05:47:12;8.38;;;4.07;;
78416;SDS011;67715;46.170;6.140;2024-03-23T05:49:41;5.22;;;3.58;;
78416;SDS011;67715;46.170;6.140;2024-03-23T05:52:08;6.90;;;3.65;;
78416;SDS011;67715;46.170;6.140;2024-03-23T05:54:33;5.38;;;3.92;;
78416;SDS011;67715;46.170;6.140;2024-03-23T05:56:59;4.65;;;3.03;;
78416;SDS011;67715;46.170;6.140;2024-03-23T05:59:24;5.40;;;3.07;;
78416;SDS011;67715;46.170;6.140;2024-03-23T06:01:50;5.30;;;3.42;;
78416;SDS011;67715;46.170;6.140;2024-03-23T06:04:15;6.77;;;3.40;;
78416;SDS011;67715;46.170;6.140;2024-03-23T06:06:40;4.13;;;3.10;;
78416;SDS011;67715;46.170;6.140;2024-03-23T06:09:06;3.08;;;2.40;;
78416;SDS011;67715;46.170;6.140;2024-03-23T06:11:31;4.13;;;2.67;;
78416;SDS011;67715;46.170;6.140;2024-03-23T06:13:56;3.97;;;2.40;;
78416;SDS011;67715;46.170;6.140;2024-03-23T06:16:22;4.93;;;2.50;;
78416;SDS011;67715;46.170;6.140;2024-03-23T06:18:50;6.45;;;3.00;;
78416;SDS011;67715;46.170;6.140;2024-03-23T06:21:16;4.05;;;2.60;;
78416;SDS011;67715;46.170;6.140;2024-03-23T06:23:41;6.53;;;2.70;;
78416;SDS011;67715;46.170;6.140;2024-03-23T06:26:07;3.40;;;2.63;;
78416;SDS011;67715;46.170;6.140;2024-03-23T06:28:33;2.90;;;2.25;;
78416;SDS011;67715;46.170;6.140;2024-03-23T06:30:58;6.07;;;2.70;;
78416;SDS011;67715;46.170;6.140;2024-03-23T06:33:24;3.43;;;2.03;;
78416;SDS011;67715;46.170;6.140;2024-03-23T06:35:52;3.97;;;2.30;;
78416;SDS011;67715;46.170;6.140;2024-03-23T06:38:18;4.45;;;2.50;;
78416;SDS011;67715;46.170;6.140;2024-03-23T06:40:43;4.80;;;2.50;;
78416;SDS011;67715;46.170;6.140;2024-03-23T06:43:12;4.05;;;2.28;;
78416;SDS011;67715;46.170;6.140;2024-03-23T06:45:38;3.08;;;2.05;;
78416;SDS011;67715;46.170;6.140;2024-03-23T06:48:04;4.65;;;2.10;;
78416;SDS011;67715;46.170;6.140;2024-03-23T06:50:32;4.82;;;2.83;;
78416;SDS011;67715;46.170;6.140;2024-03-23T06:52:58;3.38;;;2.00;;
78416;SDS011;67715;46.170;6.140;2024-03-23T06:55:23;3.07;;;1.90;;
78416;SDS011;67715;46.170;6.140;2024-03-23T06:57:50;4.45;;;1.88;;
78416;SDS011;67715;46.170;6.140;2024-03-23T07:00:15;3.57;;;2.00;;
78416;SDS011;67715;46.170;6.140;2024-03-23T07:02:41;2.83;;;1.95;;
78416;SDS011;67715;46.170;6.140;2024-03-23T07:05:06;2.87;;;2.00;;
78416;SDS011;67715;46.170;6.140;2024-03-23T07:07:32;3.63;;;2.20;;
78416;SDS011;67715;46.170;6.140;2024-03-23T07:09:57;5.93;;;2.55;;
78416;SDS011;67715;46.170;6.140;2024-03-23T07:12:22;3.33;;;2.40;;
78416;SDS011;67715;46.170;6.140;2024-03-23T07:14:48;4.17;;;2.10;;
78416;SDS011;67715;46.170;6.140;2024-03-23T07:17:13;3.80;;;2.10;;
78416;SDS011;67715;46.170;6.140;2024-03-23T07:19:38;4.23;;;1.97;;
78416;SDS011;67715;46.170;6.140;2024-03-23T07:22:04;4.13;;;2.03;;
78416;SDS011;67715;46.170;6.140;2024-03-23T07:24:29;3.25;;;1.95;;
78416;SDS011;67715;46.170;6.140;2024-03-23T07:26:55;4.32;;;2.22;;
78416;SDS011;67715;46.170;6.140;2024-03-23T07:29:22;3.75;;;2.03;;
78416;SDS011;67715;46.170;6.140;2024-03-23T07:31:48;3.88;;;2.45;;
78416;SDS011;67715;46.170;6.140;2024-03-23T07:34:13;4.13;;;1.60;;
78416;SDS011;67715;46.170;6.140;2024-03-23T07:36:39;4.10;;;1.90;;
78416;SDS011;67715;46.170;6.140;2024-03-23T07:39:04;2.50;;;1.67;;
78416;SDS011;67715;46.170;6.140;2024-03-23T07:41:29;2.60;;;1.30;;
78416;SDS011;67715;46.170;6.140;2024-03-23T07:43:55;2.80;;;1.55;;
78416;SDS011;67715;46.170;6.140;2024-03-23T07:46:21;2.23;;;1.10;;
78416;SDS011;67715;46.170;6.140;2024-03-23T07:48:46;3.58;;;1.20;;
78416;SDS011;67715;46.170;6.140;2024-03-23T07:51:21;3.03;;;1.20;;
78416;SDS011;67715;46.170;6.140;2024-03-23T07:53:48;1.65;;;0.80;;
78416;SDS011;67715;46.170;6.140;2024-03-23T07:56:17;1.58;;;0.70;;
78416;SDS011;67715;46.170;6.140;2024-03-23T07:58:46;2.63;;;0.60;;
78416;SDS011;67715;46.170;6.140;2024-03-23T08:01:13;0.82;;;0.60;;
78416;SDS011;67715;46.170;6.140;2024-03-23T08:03:42;2.97;;;0.68;;
78416;SDS011;67715;46.170;6.140;2024-03-23T08:06:12;1.55;;;0.82;;
78416;SDS011;67715;46.170;6.140;2024-03-23T08:08:42;0.50;;;0.40;;
78416;SDS011;67715;46.170;6.140;2024-03-23T08:11:08;1.17;;;0.43;;
78416;SDS011;67715;46.170;6.140;2024-03-23T08:13:34;1.50;;;0.50;;
78416;SDS011;67715;46.170;6.140;2024-03-23T08:16:00;1.58;;;0.40;;
78416;SDS011;67715;46.170;6.140;2024-03-23T08:18:27;4.95;;;0.40;;
78416;SDS011;67715;46.170;6.140;2024-03-23T08:20:56;1.57;;;0.20;;
78416;SDS011;67715;46.170;6.140;2024-03-23T08:23:22;0.40;;;0.30;;
78416;SDS011;67715;46.170;6.140;2024-03-23T08:25:47;0.95;;;0.35;;
78416;SDS011;67715;46.170;6.140;2024-03-23T08:28:13;2.17;;;0.57;;
78416;SDS011;67715;46.170;6.140;2024-03-23T08:30:38;0.73;;;0.38;;
78416;SDS011;67715;46.170;6.140;2024-03-23T08:33:03;1.17;;;0.87;;
78416;SDS011;67715;46.170;6.140;2024-03-23T08:35:29;3.42;;;0.40;;
78416;SDS011;67715;46.170;6.140;2024-03-23T08:37:54;1.03;;;0.50;;
78416;SDS011;67715;46.170;6.140;2024-03-23T08:40:19;0.28;;;0.25;;
78416;SDS011;67715;46.170;6.140;2024-03-23T08:42:45;1.50;;;0.50;;
78416;SDS011;67715;46.170;6.140;2024-03-23T08:45:10;0.60;;;0.40;;
78416;SDS011;67715;46.170;6.140;2024-03-23T08:47:35;1.25;;;0.50;;
78416;SDS011;67715;46.170;6.140;2024-03-23T08:50:01;1.80;;;0.70;;
78416;SDS011;67715;46.170;6.140;2024-03-23T08:52:26;1.00;;;0.50;;
78416;SDS011;67715;46.170;6.140;2024-03-23T08:54:53;0.68;;;0.30;;
78416;SDS011;67715;46.170;6.140;2024-03-23T08:57:19;2.13;;;0.38;;
78416;SDS011;67715;46.170;6.140;2024-03-23T08:59:44;3.20;;;0.50;;
78416;SDS011;67715;46.170;6.140;2024-03-23T09:02:09;1.43;;;0.40;;
78416;SDS011;67715;46.170;6.140;2024-03-23T09:04:34;2.07;;;0.47;;
78416;SDS011;67715;46.170;6.140;2024-03-23T09:07:00;1.33;;;0.50;;
78416;SDS011;67715;46.170;6.140;2024-03-23T09:09:25;0.88;;;0.30;;
78416;SDS011;67715;46.170;6.140;2024-03-23T09:11:51;2.28;;;0.43;;
78416;SDS011;67715;46.170;6.140;2024-03-23T09:14:16;1.53;;;0.40;;
78416;SDS011;67715;46.170;6.140;2024-03-23T09:16:41;1.73;;;0.50;;
78416;SDS011;67715;46.170;6.140;2024-03-23T09:19:07;1.30;;;0.47;;
78416;SDS011;67715;46.170;6.140;2024-03-23T09:21:32;1.30;;;0.53;;
78416;SDS011;67715;46.170;6.140;2024-03-23T09:23:58;2.53;;;0.65;;
78416;SDS011;67715;46.170;6.140;2024-03-23T09:26:23;3.07;;;0.57;;
78416;SDS011;67715;46.170;6.140;2024-03-23T09:28:48;1.70;;;0.50;;
78416;SDS011;67715;46.170;6.140;2024-03-23T09:31:14;4.38;;;0.80;;
78416;SDS011;67715;46.170;6.140;2024-03-23T09:33:40;1.88;;;0.60;;
78416;SDS011;67715;46.170;6.140;2024-03-23T09:36:06;3.60;;;0.95;;
78416;SDS011;67715;46.170;6.140;2024-03-23T09:38:32;3.20;;;0.75;;
78416;SDS011;67715;46.170;6.140;2024-03-23T09:40:57;3.10;;;0.68;;
78416;SDS011;67715;46.170;6.140;2024-03-23T09:43:23;3.40;;;0.73;;
78416;SDS011;67715;46.170;6.140;2024-03-23T09:45:48;4.90;;;1.00;;
78416;SDS011;67715;46.170;6.140;2024-03-23T09:48:14;2.85;;;0.88;;
78416;SDS011;67715;46.170;6.140;2024-03-23T09:50:39;2.53;;;0.60;;
78416;SDS011;67715;46.170;6.140;2024-03-23T09:53:08;6.18;;;1.17;;
78416;SDS011;67715;46.170;6.140;2024-03-23T09:55:35;2.22;;;0.68;;
78416;SDS011;67715;46.170;6.140;2024-03-23T09:58:01;2.20;;;0.50;;
78416;SDS011;67715;46.170;6.140;2024-03-23T10:00:26;2.80;;;0.60;;
78416;SDS011;67715;46.170;6.140;2024-03-23T10:02:52;5.20;;;0.77;;
78416;SDS011;67715;46.170;6.140;2024-03-23T10:05:20;2.88;;;1.20;;
78416;SDS011;67715;46.170;6.140;2024-03-23T10:07:48;3.35;;;0.75;;
78416;SDS011;67715;46.170;6.140;2024-03-23T10:10:15;2.85;;;0.60;;
78416;SDS011;67715;46.170;6.140;2024-03-23T10:12:44;3.53;;;0.63;;
78416;SDS011;67715;46.170;6.140;2024-03-23T10:17:40;3.63;;;0.68;;
78416;SDS011;67715;46.170;6.140;2024-03-23T10:20:06;2.53;;;0.60;;
78416;SDS011;67715;46.170;6.140;2024-03-23T10:22:37;1.95;;;0.57;;
78416;SDS011;67715;46.170;6.140;2024-03-23T10:25:07;7.78;;;1.25;;
78416;SDS011;67715;46.170;6.140;2024-03-23T10:27:33;2.80;;;1.00;;
78416;SDS011;67715;46.170;6.140;2024-03-23T10:30:07;1.98;;;0.98;;
78416;SDS011;67715;46.170;6.140;2024-03-23T10:32:33;3.83;;;1.20;;
78416;SDS011;67715;46.170;6.140;2024-03-23T10:35:18;7.10;;;1.20;;
78416;SDS011;67715;46.170;6.140;2024-03-23T10:37:45;4.85;;;1.73;;
78416;SDS011;67715;46.170;6.140;2024-03-23T10:40:16;4.78;;;0.93;;
78416;SDS011;67715;46.170;6.140;2024-03-23T10:42:45;3.50;;;0.75;;
78416;SDS011;67715;46.170;6.140;2024-03-23T10:45:11;2.88;;;0.77;;
78416;SDS011;67715;46.170;6.140;2024-03-23T10:47:37;2.53;;;0.80;;
78416;SDS011;67715;46.170;6.140;2024-03-23T10:50:06;6.32;;;0.98;;
78416;SDS011;67715;46.170;6.140;2024-03-23T10:52:34;3.95;;;0.98;;
78416;SDS011;67715;46.170;6.140;2024-03-23T10:55:01;3.08;;;0.75;;
78416;SDS011;67715;46.170;6.140;2024-03-23T10:57:40;4.85;;;1.15;;
78416;SDS011;67715;46.170;6.140;2024-03-23T11:02:33;7.10;;;1.10;;
78416;SDS011;67715;46.170;6.140;2024-03-23T11:04:59;2.80;;;1.10;;
78416;SDS011;67715;46.170;6.140;2024-03-23T11:09:52;1.10;;;0.60;;
78416;SDS011;67715;46.170;6.140;2024-03-23T11:14:46;3.17;;;0.80;;
78416;SDS011;67715;46.170;6.140;2024-03-23T11:17:17;5.78;;;0.85;;
78416;SDS011;67715;46.170;6.140;2024-03-23T11:19:43;4.20;;;0.90;;
78416;SDS011;67715;46.170;6.140;2024-03-23T11:22:08;3.00;;;0.77;;
78416;SDS011;67715;46.170;6.140;2024-03-23T11:24:33;1.47;;;0.73;;
78416;SDS011;67715;46.170;6.140;2024-03-23T11:26:59;1.70;;;0.70;;
78416;SDS011;67715;46.170;6.140;2024-03-23T11:29:29;1.15;;;0.50;;
78416;SDS011;67715;46.170;6.140;2024-03-23T11:31:55;4.03;;;1.02;;
78416;SDS011;67715;46.170;6.140;2024-03-23T11:34:20;3.53;;;0.77;;
78416;SDS011;67715;46.170;6.140;2024-03-23T11:36:46;4.20;;;0.70;;
78416;SDS011;67715;46.170;6.140;2024-03-23T11:39:15;2.17;;;1.08;;
78416;SDS011;67715;46.170;6.140;2024-03-23T11:41:51;3.45;;;1.02;;
78416;SDS011;67715;46.170;6.140;2024-03-23T11:44:21;2.85;;;0.77;;
78416;SDS011;67715;46.170;6.140;2024-03-23T11:46:50;1.15;;;0.60;;
78416;SDS011;67715;46.170;6.140;2024-03-23T11:49:23;0.70;;;0.47;;
78416;SDS011;67715;46.170;6.140;2024-03-23T11:51:49;4.97;;;1.02;;
78416;SDS011;67715;46.170;6.140;2024-03-23T11:54:15;2.90;;;0.60;;
78416;SDS011;67715;46.170;6.140;2024-03-23T11:56:40;3.63;;;0.90;;
78416;SDS011;67715;46.170;6.140;2024-03-23T11:59:06;1.90;;;0.85;;
78416;SDS011;67715;46.170;6.140;2024-03-23T12:01:32;1.33;;;0.50;;
78416;SDS011;67715;46.170;6.140;2024-03-23T12:03:57;2.38;;;0.90;;
78416;SDS011;67715;46.170;6.140;2024-03-23T12:06:22;2.77;;;0.70;;
78416;SDS011;67715;46.170;6.140;2024-03-23T12:08:48;2.27;;;0.80;;
78416;SDS011;67715;46.170;6.140;2024-03-23T12:11:14;2.75;;;0.80;;
78416;SDS011;67715;46.170;6.140;2024-03-23T12:13:41;2.88;;;0.70;;
78416;SDS011;67715;46.170;6.140;2024-03-23T12:16:09;2.60;;;0.80;;
78416;SDS011;67715;46.170;6.140;2024-03-23T12:18:35;4.32;;;1.35;;
78416;SDS011;67715;46.170;6.140;2024-03-23T12:21:00;2.97;;;1.00;;
78416;SDS011;67715;46.170;6.140;2024-03-23T12:23:25;3.43;;;1.10;;
78416;SDS011;67715;46.170;6.140;2024-03-23T12:25:51;3.63;;;0.60;;
78416;SDS011;67715;46.170;6.140;2024-03-23T12:28:16;4.33;;;0.87;;
78416;SDS011;67715;46.170;6.140;2024-03-23T12:30:42;2.05;;;1.08;;
78416;SDS011;67715;46.170;6.140;2024-03-23T12:33:07;1.30;;;0.57;;
78416;SDS011;67715;46.170;6.140;2024-03-23T12:35:32;2.53;;;0.80;;
78416;SDS011;67715;46.170;6.140;2024-03-23T12:37:58;3.22;;;0.73;;
78416;SDS011;67715;46.170;6.140;2024-03-23T12:40:23;2.65;;;0.70;;
78416;SDS011;67715;46.170;6.140;2024-03-23T12:42:49;6.60;;;1.15;;
78416;SDS011;67715;46.170;6.140;2024-03-23T12:45:14;3.47;;;0.60;;
78416;SDS011;67715;46.170;6.140;2024-03-23T12:47:40;4.30;;;1.15;;
78416;SDS011;67715;46.170;6.140;2024-03-23T12:50:05;6.05;;;0.90;;
78416;SDS011;67715;46.170;6.140;2024-03-23T12:52:32;4.03;;;0.70;;
78416;SDS011;67715;46.170;6.140;2024-03-23T12:54:57;3.90;;;0.73;;
78416;SDS011;67715;46.170;6.140;2024-03-23T12:57:23;2.38;;;0.60;;
78416;SDS011;67715;46.170;6.140;2024-03-23T12:59:49;2.78;;;0.60;;
78416;SDS011;67715;46.170;6.140;2024-03-23T13:02:16;3.33;;;0.95;;
78416;SDS011;67715;46.170;6.140;2024-03-23T13:04:45;5.07;;;0.80;;
78416;SDS011;67715;46.170;6.140;2024-03-23T13:07:20;2.00;;;0.82;;
78416;SDS011;67715;46.170;6.140;2024-03-23T13:09:46;6.50;;;0.95;;
78416;SDS011;67715;46.170;6.140;2024-03-23T13:12:12;3.80;;;0.70;;
78416;SDS011;67715;46.170;6.140;2024-03-23T13:14:40;1.42;;;0.60;;
78416;SDS011;67715;46.170;6.140;2024-03-23T13:17:06;4.28;;;1.23;;
78416;SDS011;67715;46.170;6.140;2024-03-23T13:19:32;4.60;;;0.80;;
78416;SDS011;67715;46.170;6.140;2024-03-23T13:21:58;3.15;;;0.82;;
78416;SDS011;67715;46.170;6.140;2024-03-23T13:24:32;3.28;;;0.80;;
78416;SDS011;67715;46.170;6.140;2024-03-23T13:26:58;2.85;;;0.85;;
78416;SDS011;67715;46.170;6.140;2024-03-23T13:29:23;4.70;;;0.65;;
78416;SDS011;67715;46.170;6.140;2024-03-23T13:31:49;2.58;;;0.90;;
78416;SDS011;67715;46.170;6.140;2024-03-23T13:34:15;2.22;;;0.60;;
78416;SDS011;67715;46.170;6.140;2024-03-23T13:36:41;3.67;;;0.82;;
78416;SDS011;67715;46.170;6.140;2024-03-23T13:39:07;1.67;;;0.50;;
78416;SDS011;67715;46.170;6.140;2024-03-23T13:41:42;2.78;;;0.57;;
78416;SDS011;67715;46.170;6.140;2024-03-23T13:44:09;1.67;;;0.57;;
78416;SDS011;67715;46.170;6.140;2024-03-23T13:46:38;1.42;;;0.63;;
78416;SDS011;67715;46.170;6.140;2024-03-23T13:49:07;2.67;;;0.70;;
78416;SDS011;67715;46.170;6.140;2024-03-23T13:51:32;2.28;;;0.70;;
78416;SDS011;67715;46.170;6.140;2024-03-23T13:53:58;2.60;;;0.55;;
78416;SDS011;67715;46.170;6.140;2024-03-23T13:56:26;2.42;;;0.60;;
78416;SDS011;67715;46.170;6.140;2024-03-23T13:58:55;1.25;;;0.63;;
78416;SDS011;67715;46.170;6.140;2024-03-23T14:01:21;1.73;;;0.45;;
78416;SDS011;67715;46.170;6.140;2024-03-23T14:03:46;3.47;;;0.90;;
78416;SDS011;67715;46.170;6.140;2024-03-23T14:06:11;1.87;;;0.40;;
78416;SDS011;67715;46.170;6.140;2024-03-23T14:08:37;0.93;;;0.47;;
78416;SDS011;67715;46.170;6.140;2024-03-23T14:11:06;2.03;;;0.50;;
78416;SDS011;67715;46.170;6.140;2024-03-23T14:13:32;2.67;;;0.60;;
78416;SDS011;67715;46.170;6.140;2024-03-23T14:15:58;1.67;;;0.60;;
78416;SDS011;67715;46.170;6.140;2024-03-23T14:18:23;3.53;;;0.75;;
78416;SDS011;67715;46.170;6.140;2024-03-23T14:20:49;1.85;;;0.55;;
78416;SDS011;67715;46.170;6.140;2024-03-23T14:23:15;2.63;;;1.10;;
78416;SDS011;67715;46.170;6.140;2024-03-23T14:25:41;2.60;;;0.68;;
78416;SDS011;67715;46.170;6.140;2024-03-23T14:28:06;1.10;;;0.75;;
78416;SDS011;67715;46.170;6.140;2024-03-23T14:30:38;1.95;;;0.60;;
78416;SDS011;67715;46.170;6.140;2024-03-23T14:33:04;2.23;;;0.57;;
78416;SDS011;67715;46.170;6.140;2024-03-23T14:35:29;1.45;;;0.55;;
78416;SDS011;67715;46.170;6.140;2024-03-23T14:37:54;2.50;;;0.60;;
78416;SDS011;67715;46.170;6.140;2024-03-23T14:40:20;3.60;;;0.87;;
78416;SDS011;67715;46.170;6.140;2024-03-23T14:42:45;1.33;;;0.43;;
78416;SDS011;67715;46.170;6.140;2024-03-23T14:45:10;4.57;;;1.00;;
78416;SDS011;67715;46.170;6.140;2024-03-23T14:47:36;3.17;;;0.73;;
78416;SDS011;67715;46.170;6.140;2024-03-23T14:50:02;2.13;;;0.60;;
78416;SDS011;67715;46.170;6.140;2024-03-23T14:52:27;0.95;;;0.50;;
78416;SDS011;67715;46.170;6.140;2024-03-23T14:54:54;2.47;;;0.60;;
78416;SDS011;67715;46.170;6.140;2024-03-23T14:57:21;6.40;;;0.70;;
78416;SDS011;67715;46.170;6.140;2024-03-23T14:59:46;1.70;;;1.13;;
78416;SDS011;67715;46.170;6.140;2024-03-23T15:02:11;0.53;;;0.40;;
78416;SDS011;67715;46.170;6.140;2024-03-23T15:04:38;0.93;;;0.60;;
78416;SDS011;67715;46.170;6.140;2024-03-23T15:07:06;1.48;;;0.70;;
78416;SDS011;67715;46.170;6.140;2024-03-23T15:09:32;2.57;;;0.60;;
78416;SDS011;67715;46.170;6.140;2024-03-23T15:11:57;2.20;;;0.60;;
78416;SDS011;67715;46.170;6.140;2024-03-23T15:14:23;2.30;;;0.40;;
78416;SDS011;67715;46.170;6.140;2024-03-23T15:16:48;3.17;;;0.88;;
78416;SDS011;67715;46.170;6.140;2024-03-23T15:19:14;4.05;;;0.50;;
78416;SDS011;67715;46.170;6.140;2024-03-23T15:21:40;2.08;;;0.60;;
78416;SDS011;67715;46.170;6.140;2024-03-23T15:24:05;2.70;;;0.60;;
78416;SDS011;67715;46.170;6.140;2024-03-23T15:26:31;3.92;;;0.63;;
78416;SDS011;67715;46.170;6.140;2024-03-23T15:28:57;2.22;;;0.70;;
78416;SDS011;67715;46.170;6.140;2024-03-23T15:31:23;2.37;;;0.67;;
78416;SDS011;67715;46.170;6.140;2024-03-23T15:33:48;1.83;;;0.68;;
78416;SDS011;67715;46.170;6.140;2024-03-23T15:36:14;1.00;;;0.63;;
78416;SDS011;67715;46.170;6.140;2024-03-23T15:38:39;1.75;;;0.30;;
78416;SDS011;67715;46.170;6.140;2024-03-23T15:41:05;2.97;;;0.80;;
78416;SDS011;67715;46.170;6.140;2024-03-23T15:43:30;2.53;;;0.50;;
78416;SDS011;67715;46.170;6.140;2024-03-23T15:45:56;3.78;;;0.93;;